Time;durP1;ratioP1;P1;durP2;ratioP2;P2;SDS_P1;SDS_P2;PMS_P1;PMS_P2;Temp;Humidity;BMP_temperature;BMP_pressure;BME280_temperature;BME280_humidity;BME280_pressure;Samples;Min_cycle;Max_cycle;Signal;HPM_P1;HPM_P2
2021/03/03 00:01:15;;;;;;;;;;;;;;;8.53;67.40;100361.63;5056295;28;19917;-77
2021/03/03 00:03:41;;;;;;;;;;;;;;;8.46;67.46;100355.69;5057899;28;19920;-78
2021/03/03 00:06:06;;;;;;;;;;;;;;;8.37;67.19;100359.09;5059511;28;20397;-77
2021/03/03 00:08:31;;;;;;;;;;;;;;;8.34;68.68;100353.94;5060964;28;20007;-78
2021/03/03 00:10:57;;;;;;;;;;;;;;;8.40;68.20;100359.94;5040809;28;19927;-78
2021/03/03 00:13:22;;;;;;;;;;;;;;;8.36;67.58;100356.50;5045197;28;19921;-78
2021/03/03 00:15:48;;;;;;;;;;;;;;;8.05;70.85;100353.09;5061467;28;19928;-78
2021/03/03 00:18:14;;;;;;;;;;;;;;;8.07;70.07;100352.22;5064466;28;19924;-78
2021/03/03 00:20:39;;;;;;;;;;;;;;;8.12;69.72;100349.69;5063105;28;19924;-78
2021/03/03 00:23:04;;;;;;;;;;;;;;;8.30;70.04;100354.81;5062391;28;20430;-78
2021/03/03 00:25:30;;;;;;;;;;;;;;;8.22;69.90;100353.97;5050485;28;20047;-78
2021/03/03 00:27:55;;;;;;;;;;;;;;;8.31;69.32;100351.38;5062073;28;19974;-78
2021/03/03 00:30:20;;;;;;;;;;;;;;;7.97;69.40;100346.25;5057497;28;19972;-77
2021/03/03 00:32:47;;;;;;;;;;;;;;;8.04;69.34;100346.28;5046380;28;19920;-77
2021/03/03 00:35:12;;;;;;;;;;;;;;;8.20;69.38;100345.41;5030199;28;20297;-78
2021/03/03 00:37:38;;;;;;;;;;;;;;;8.05;69.35;100347.97;5063233;28;19925;-78
2021/03/03 00:40:04;;;;;;;;;;;;;;;8.00;70.80;100349.69;5042172;28;19924;-78
2021/03/03 00:42:30;;;;;;;;;;;;;;;7.84;70.03;100343.69;5062857;28;20386;-78
2021/03/03 00:44:55;;;;;;;;;;;;;;;8.02;70.03;100347.97;5059680;28;19924;-77
2021/03/03 00:47:20;;;;;;;;;;;;;;;8.07;68.76;100347.09;5064143;28;19928;-78
2021/03/03 00:49:46;;;;;;;;;;;;;;;8.03;69.40;100350.56;5062763;28;19924;-76
2021/03/03 00:52:11;;;;;;;;;;;;;;;7.90;70.27;100349.69;5061473;28;19920;-78
2021/03/03 00:54:36;;;;;;;;;;;;;;;7.94;69.43;100351.41;5060411;28;19952;-77
2021/03/03 00:57:02;;;;;;;;;;;;;;;7.84;70.13;100359.94;5061051;28;19917;-78
2021/03/03 00:59:27;;;;;;;;;;;;;;;7.69;70.50;100362.50;5063297;28;19920;-78
2021/03/03 01:01:53;;;;;;;;;;;;;;;7.77;70.89;100358.22;5060546;28;19924;-77
2021/03/03 01:04:18;;;;;;;;;;;;;;;8.00;69.13;100362.50;5048293;28;20026;-78
2021/03/03 01:06:43;;;;;;;;;;;;;;;8.02;69.79;100363.38;5061429;28;19944;-77
2021/03/03 01:09:09;;;;;;;;;;;;;;;7.85;69.38;100358.25;5045056;28;19923;-77
2021/03/03 01:11:34;;;;;;;;;;;;;;;8.03;68.74;100349.66;5043915;28;20169;-77
2021/03/03 01:14:00;;;;;;;;;;;;;;;7.86;68.54;100368.47;5057461;28;20650;-78
2021/03/03 01:16:25;;;;;;;;;;;;;;;7.97;69.36;100366.78;5027886;28;19943;-78
2021/03/03 01:18:50;;;;;;;;;;;;;;;7.86;69.26;100362.50;5041040;28;20367;-78
2021/03/03 01:21:16;;;;;;;;;;;;;;;7.83;69.74;100357.38;5008039;28;19995;-78
2021/03/03 01:23:41;;;;;;;;;;;;;;;7.77;69.63;100368.47;4977142;28;20429;-77
2021/03/03 01:26:07;;;;;;;;;;;;;;;7.87;68.45;100359.09;4992150;28;20016;-78
2021/03/03 01:28:32;;;;;;;;;;;;;;;7.84;68.28;100359.06;5023066;28;19952;-77
2021/03/03 01:30:57;;;;;;;;;;;;;;;7.73;69.68;100356.50;5022589;28;19982;-76
2021/03/03 01:33:23;;;;;;;;;;;;;;;7.72;68.00;100354.78;4991522;28;19921;-76
2021/03/03 01:35:49;;;;;;;;;;;;;;;7.71;68.92;100360.78;4991735;28;19968;-77
2021/03/03 01:38:14;;;;;;;;;;;;;;;7.73;67.12;100354.81;5021788;28;19984;-77
2021/03/03 01:40:40;;;;;;;;;;;;;;;7.77;68.25;100352.22;5004585;28;19921;-78
2021/03/03 01:43:05;;;;;;;;;;;;;;;7.65;68.23;100353.06;4990001;28;20024;-78
2021/03/03 01:45:30;;;;;;;;;;;;;;;7.87;66.86;100348.84;4991492;28;20302;-77
2021/03/03 01:47:56;;;;;;;;;;;;;;;7.79;67.33;100340.28;5021724;28;20652;-77
2021/03/03 01:50:21;;;;;;;;;;;;;;;7.81;67.35;100347.09;4990499;28;19927;-77
2021/03/03 01:52:47;;;;;;;;;;;;;;;7.81;66.61;100344.53;4992453;28;19932;-77
2021/03/03 01:55:12;;;;;;;;;;;;;;;7.71;66.91;100343.69;4973129;28;19917;-77
2021/03/03 01:57:38;;;;;;;;;;;;;;;7.85;66.76;100335.16;4974623;28;19971;-78
2021/03/03 02:00:04;;;;;;;;;;;;;;;7.78;66.76;100338.53;4992245;28;19917;-76
2021/03/03 02:02:30;;;;;;;;;;;;;;;7.65;67.29;100333.41;5004037;28;19916;-77
2021/03/03 02:04:55;;;;;;;;;;;;;;;7.66;66.99;100335.13;5005332;28;19918;-77
2021/03/03 02:07:20;;;;;;;;;;;;;;;7.66;67.27;100331.69;4994839;28;19921;-77
2021/03/03 02:09:53;;;;;;;;;;;;;;;7.70;66.86;100318.88;5020286;28;20892;-77
2021/03/03 02:12:21;;;;;;;;;;;;;;;7.74;66.17;100320.59;4989985;28;19929;-77
2021/03/03 02:14:48;;;;;;;;;;;;;;;7.45;68.47;100319.72;5006798;28;20020;-78
2021/03/03 02:17:14;;;;;;;;;;;;;;;7.62;66.83;100307.78;4990275;28;19925;-77
2021/03/03 02:19:39;;;;;;;;;;;;;;;7.67;66.50;100310.34;4990323;28;19971;-77
2021/03/03 02:22:04;;;;;;;;;;;;;;;7.79;65.86;100314.63;5017486;28;20023;-77
2021/03/03 02:24:31;;;;;;;;;;;;;;;7.71;66.73;100305.22;5055501;28;20104;-77
2021/03/03 02:26:56;;;;;;;;;;;;;;;7.72;66.11;100303.50;5040034;28;19942;-78
2021/03/03 02:29:25;;;;;;;;;;;;;;;7.67;66.53;100307.78;5053717;28;19944;-78
2021/03/03 02:31:51;;;;;;;;;;;;;;;7.52;67.04;100301.75;5022641;28;19927;-77
2021/03/03 02:34:17;;;;;;;;;;;;;;;7.63;67.62;100303.50;5055127;28;19916;-77
2021/03/03 02:36:42;;;;;;;;;;;;;;;7.39;67.76;100305.19;5053784;28;19916;-77
2021/03/03 02:39:08;;;;;;;;;;;;;;;7.54;66.47;100300.06;5040066;28;19974;-77
2021/03/03 02:41:33;;;;;;;;;;;;;;;7.52;66.73;100296.63;5055244;28;19920;-77
2021/03/03 02:44:00;;;;;;;;;;;;;;;7.47;66.36;100297.50;5037858;28;20799;-77
2021/03/03 02:46:25;;;;;;;;;;;;;;;7.63;66.52;100296.66;5035857;28;19979;-77
2021/03/03 02:48:51;;;;;;;;;;;;;;;7.48;67.40;100289.81;5037762;28;19921;-77
2021/03/03 02:51:16;;;;;;;;;;;;;;;7.44;66.45;100288.09;5056380;28;20119;-77
2021/03/03 02:53:41;;;;;;;;;;;;;;;7.43;67.82;100283.81;5054207;28;19916;-77
2021/03/03 02:56:07;;;;;;;;;;;;;;;7.46;66.56;100278.72;5053110;28;20024;-77
2021/03/03 02:58:32;;;;;;;;;;;;;;;7.60;67.13;100283.00;5038354;28;19916;-76
2021/03/03 03:00:58;;;;;;;;;;;;;;;7.63;66.59;100278.72;5054640;28;20378;-77
2021/03/03 03:03:32;;;;;;;;;;;;;;;7.38;67.07;100284.69;5053525;28;19931;-77
2021/03/03 03:06:08;;;;;;;;;;;;;;;7.34;66.65;100291.50;5055080;28;19925;-77
2021/03/03 03:08:33;;;;;;;;;;;;;;;7.30;67.98;100284.66;5055212;28;19921;-77
2021/03/03 03:10:59;;;;;;;;;;;;;;;7.45;66.15;100278.69;5053981;28;20282;-77
2021/03/03 03:13:24;;;;;;;;;;;;;;;7.37;66.63;100281.25;5020796;28;19920;-77
2021/03/03 03:15:50;;;;;;;;;;;;;;;7.28;68.30;100286.38;5022961;28;20318;-77
2021/03/03 03:18:17;;;;;;;;;;;;;;;7.30;66.87;100289.78;5054705;28;19931;-76
2021/03/03 03:20:42;;;;;;;;;;;;;;;7.29;66.55;100282.94;5056645;28;19921;-77
2021/03/03 03:23:07;;;;;;;;;;;;;;;7.30;66.34;100284.66;5034272;28;19921;-76
2021/03/03 03:25:33;;;;;;;;;;;;;;;7.18;67.64;100280.34;5024363;28;19916;-77
2021/03/03 03:27:58;;;;;;;;;;;;;;;7.35;65.61;100287.25;5020268;28;19924;-77
2021/03/03 03:30:23;;;;;;;;;;;;;;;7.22;67.03;100278.66;5051105;28;19924;-77
2021/03/03 03:32:49;;;;;;;;;;;;;;;7.26;67.12;100277.81;5044359;28;21134;-77
2021/03/03 03:35:14;;;;;;;;;;;;;;;7.27;66.18;100279.53;5037643;28;19924;-77
2021/03/03 03:37:40;;;;;;;;;;;;;;;7.23;65.58;100277.78;5047246;28;19968;-77
2021/03/03 03:40:06;;;;;;;;;;;;;;;7.24;66.63;100280.38;5035811;28;19924;-77
2021/03/03 03:42:31;;;;;;;;;;;;;;;7.13;67.74;100276.94;5035315;28;19923;-77
2021/03/03 03:44:57;;;;;;;;;;;;;;;7.23;67.25;100273.56;5018535;28;19928;-78
2021/03/03 03:47:22;;;;;;;;;;;;;;;7.22;66.83;100274.38;5039289;28;19921;-77
2021/03/03 03:49:47;;;;;;;;;;;;;;;7.20;67.15;100268.41;5043898;28;19927;-77
2021/03/03 03:52:16;;;;;;;;;;;;;;;7.28;66.37;100273.56;5058126;28;21104;-77
2021/03/03 03:54:47;;;;;;;;;;;;;;;7.29;67.13;100270.13;5055655;28;20331;-77
2021/03/03 03:57:13;;;;;;;;;;;;;;;7.22;67.90;100276.09;5044986;28;20106;-76
2021/03/03 03:59:38;;;;;;;;;;;;;;;7.17;68.04;100267.56;5043710;28;19993;-77
2021/03/03 04:02:03;;;;;;;;;;;;;;;7.24;67.58;100269.28;5059730;28;19971;-77
2021/03/03 04:04:29;;;;;;;;;;;;;;;7.11;68.59;100279.47;5060318;28;19925;-77
2021/03/03 04:06:54;;;;;;;;;;;;;;;7.06;66.45;100265.81;5055145;28;20282;-77
2021/03/03 04:09:19;;;;;;;;;;;;;;;7.07;67.26;100267.53;5045973;28;19924;-78
2021/03/03 04:11:45;;;;;;;;;;;;;;;7.06;67.44;100270.94;5052920;28;19920;-77
2021/03/03 04:14:10;;;;;;;;;;;;;;;7.25;66.19;100269.28;5041888;28;19924;-77
2021/03/03 04:16:36;;;;;;;;;;;;;;;7.24;66.34;100265.00;5059201;28;19923;-76
2021/03/03 04:19:01;;;;;;;;;;;;;;;7.08;67.65;100261.56;5060788;28;19923;-77
2021/03/03 04:21:26;;;;;;;;;;;;;;;6.93;68.30;100268.34;5061153;28;19931;-77
2021/03/03 04:23:51;;;;;;;;;;;;;;;6.63;68.81;100268.22;5031751;28;20321;-76
2021/03/03 04:26:17;;;;;;;;;;;;;;;6.79;69.20;100266.56;5059560;28;20031;-77
2021/03/03 04:28:42;;;;;;;;;;;;;;;6.90;69.23;100264.91;5061362;28;19978;-77
2021/03/03 04:31:07;;;;;;;;;;;;;;;6.86;68.17;100259.78;5062056;28;19984;-78
2021/03/03 04:33:33;;;;;;;;;;;;;;;7.01;67.85;100266.66;5060398;28;20317;-77
2021/03/03 04:35:58;;;;;;;;;;;;;;;6.69;68.36;100260.56;5048204;28;20011;-77
2021/03/03 04:38:24;;;;;;;;;;;;;;;6.97;69.55;100262.38;5064242;28;20390;-78
2021/03/03 04:40:49;;;;;;;;;;;;;;;6.97;68.64;100260.66;5045807;28;19921;-76
2021/03/03 04:43:14;;;;;;;;;;;;;;;7.01;66.78;100261.53;5028202;28;19923;-77
2021/03/03 04:45:40;;;;;;;;;;;;;;;6.74;68.28;100267.41;5050007;28;19921;-77
2021/03/03 04:48:06;;;;;;;;;;;;;;;6.81;67.62;100264.88;5061089;28;19927;-75
2021/03/03 04:50:31;;;;;;;;;;;;;;;7.00;66.69;100260.69;5062733;28;19935;-77
2021/03/03 04:52:56;;;;;;;;;;;;;;;7.01;66.11;100257.25;5063809;28;19923;-78
2021/03/03 04:55:22;;;;;;;;;;;;;;;7.12;65.33;100253.03;5045441;28;20713;-77
2021/03/03 04:57:47;;;;;;;;;;;;;;;7.04;66.44;100256.41;5047481;28;19927;-77
2021/03/03 05:00:13;;;;;;;;;;;;;;;7.00;64.81;100255.56;5041726;28;20014;-77
2021/03/03 05:02:38;;;;;;;;;;;;;;;7.13;64.93;100257.28;5039946;28;19920;-77
2021/03/03 05:05:04;;;;;;;;;;;;;;;7.12;65.44;100255.59;5043434;28;20952;-77
2021/03/03 05:07:29;;;;;;;;;;;;;;;7.20;65.34;100247.06;5059916;28;19927;-77
2021/03/03 05:09:54;;;;;;;;;;;;;;;7.20;64.44;100252.19;5041523;28;19920;-77
2021/03/03 05:12:20;;;;;;;;;;;;;;;7.24;64.06;100241.09;5043995;28;19928;-77
2021/03/03 05:14:45;;;;;;;;;;;;;;;7.24;63.68;100236.81;5043516;28;19916;-77
2021/03/03 05:17:11;;;;;;;;;;;;;;;7.26;63.40;100227.44;5040155;28;19916;-76
2021/03/03 05:19:36;;;;;;;;;;;;;;;7.25;64.09;100229.97;5028551;28;19920;-77
2021/03/03 05:22:01;;;;;;;;;;;;;;;7.31;64.02;100235.13;4990559;28;20398;-78
2021/03/03 05:24:27;;;;;;;;;;;;;;;7.07;65.79;100241.91;4990413;28;19935;-77
2021/03/03 05:26:52;;;;;;;;;;;;;;;7.18;65.23;100229.13;5023696;28;19913;-76
2021/03/03 05:29:18;;;;;;;;;;;;;;;7.22;63.44;100230.84;4991125;28;19921;-77
2021/03/03 05:31:43;;;;;;;;;;;;;;;7.31;64.58;100219.75;4991188;28;19913;-77
2021/03/03 05:34:08;;;;;;;;;;;;;;;7.33;63.65;100218.03;4990405;28;19917;-77
2021/03/03 05:36:34;;;;;;;;;;;;;;;7.19;63.71;100219.75;4991244;28;19920;-77
2021/03/03 05:38:59;;;;;;;;;;;;;;;7.07;64.82;100221.44;4975222;28;19921;-77
2021/03/03 05:41:25;;;;;;;;;;;;;;;7.31;63.76;100212.06;4990814;28;19970;-77
2021/03/03 05:43:51;;;;;;;;;;;;;;;7.12;64.58;100214.59;4975244;28;19917;-77
2021/03/03 05:46:16;;;;;;;;;;;;;;;7.11;64.73;100218.00;4991447;28;20284;-76
2021/03/03 05:48:52;;;;;;;;;;;;;;;7.18;64.66;100207.78;4991296;28;19917;-76
2021/03/03 05:51:18;;;;;;;;;;;;;;;7.31;63.59;100214.63;4992039;28;20388;-77
2021/03/03 05:53:43;;;;;;;;;;;;;;;7.37;62.62;100219.75;4976256;28;19977;-76
2021/03/03 05:56:09;;;;;;;;;;;;;;;7.30;63.04;100216.34;4993013;28;19921;-76
2021/03/03 05:58:36;;;;;;;;;;;;;;;7.25;63.06;100220.59;4994792;28;19940;-77
2021/03/03 06:01:02;;;;;;;;;;;;;;;7.07;63.41;100213.75;4993978;28;20814;-78
2021/03/03 06:03:27;;;;;;;;;;;;;;;7.13;63.71;100220.56;5024109;28;20092;-78
2021/03/03 06:05:53;;;;;;;;;;;;;;;7.27;63.75;100224.00;4977143;28;20085;-77
2021/03/03 06:08:19;;;;;;;;;;;;;;;7.35;64.08;100220.63;4993228;28;19979;-78
2021/03/03 06:10:44;;;;;;;;;;;;;;;7.38;62.72;100224.00;4992315;28;19917;-76
2021/03/03 06:13:10;;;;;;;;;;;;;;;7.30;64.07;100221.47;5008201;28;19913;-78
2021/03/03 06:15:36;;;;;;;;;;;;;;;7.38;63.86;100226.56;4977624;28;19921;-78
2021/03/03 06:18:01;;;;;;;;;;;;;;;7.18;64.11;100224.00;4995574;28;20301;-78
2021/03/03 06:20:27;;;;;;;;;;;;;;;7.28;63.91;100227.44;4972747;28;20554;-76
2021/03/03 06:22:52;;;;;;;;;;;;;;;7.38;63.26;100226.56;5027044;28;19925;-78
2021/03/03 06:25:17;;;;;;;;;;;;;;;7.36;63.64;100218.03;5052955;28;19935;-76
2021/03/03 06:27:43;;;;;;;;;;;;;;;7.18;65.14;100228.25;5051069;28;19966;-77
2021/03/03 06:30:09;;;;;;;;;;;;;;;7.17;64.16;100226.56;5030037;28;19920;-76
2021/03/03 06:33:13;;;;;;;;;;;;;;;7.23;64.78;100234.25;5033842;28;19940;-78
2021/03/03 06:35:42;;;;;;;;;;;;;;;7.15;64.82;100228.28;4999409;28;19932;-77
2021/03/03 06:38:12;;;;;;;;;;;;;;;7.22;65.62;100227.41;4997119;28;19972;-77
2021/03/03 06:40:54;;;;;;;;;;;;;;;7.20;65.69;100232.53;5004490;28;19974;-78
2021/03/03 06:43:29;;;;;;;;;;;;;;;7.18;66.13;100233.38;5021265;28;19928;-77
2021/03/03 06:45:55;;;;;;;;;;;;;;;7.31;64.75;100230.00;5026579;28;19927;-78
2021/03/03 06:48:40;;;;;;;;;;;;;;;7.44;64.09;100221.47;5016917;28;19920;-78
2021/03/03 06:51:18;;;;;;;;;;;;;;;7.39;65.24;100223.19;5051651;28;20421;-76
2021/03/03 06:53:43;;;;;;;;;;;;;;;7.45;64.72;100223.16;5050625;28;19999;-76
2021/03/03 06:56:08;;;;;;;;;;;;;;;7.63;63.89;100221.47;5032074;28;19925;-78
2021/03/03 06:58:34;;;;;;;;;;;;;;;7.64;63.75;100223.16;5052987;28;19921;-78
2021/03/03 07:00:59;;;;;;;;;;;;;;;7.69;62.72;100222.31;5034575;28;20428;-78
2021/03/03 07:03:25;;;;;;;;;;;;;;;7.83;62.96;100222.31;5031652;28;19916;-78
2021/03/03 07:05:51;;;;;;;;;;;;;;;7.63;64.77;100218.91;5042696;28;19929;-76
2021/03/03 07:08:16;;;;;;;;;;;;;;;7.86;65.16;100214.59;5047878;28;19943;-79
2021/03/03 07:10:41;;;;;;;;;;;;;;;7.86;63.84;100218.88;5036305;28;20015;-79
2021/03/03 07:13:07;;;;;;;;;;;;;;;7.76;63.17;100223.16;5052396;28;20092;-79
2021/03/03 07:15:32;;;;;;;;;;;;;;;7.89;64.10;100227.44;5037253;28;20775;-75
2021/03/03 07:17:57;;;;;;;;;;;;;;;8.14;62.25;100229.94;5021298;28;20134;-76
2021/03/03 07:20:24;;;;;;;;;;;;;;;8.02;63.46;100222.28;5053422;28;20382;-78
2021/03/03 07:22:49;;;;;;;;;;;;;;;8.17;61.74;100229.94;5036916;28;19924;-77
2021/03/03 07:25:15;;;;;;;;;;;;;;;8.29;61.74;100229.91;5053050;28;20973;-79
2021/03/03 07:27:41;;;;;;;;;;;;;;;8.44;61.32;100229.03;5017344;28;19923;-76
2021/03/03 07:30:10;;;;;;;;;;;;;;;8.39;63.14;100225.59;5052795;28;19917;-79
2021/03/03 07:32:35;;;;;;;;;;;;;;;8.51;61.38;100235.84;5053311;28;19947;-78
2021/03/03 07:35:01;;;;;;;;;;;;;;;8.54;61.67;100230.69;5035287;28;19920;-77
2021/03/03 07:37:36;;;;;;;;;;;;;;;8.73;60.19;100234.03;5035136;28;19944;-77
2021/03/03 07:40:04;;;;;;;;;;;;;;;8.62;60.85;100230.69;5031765;28;19946;-75
2021/03/03 07:42:30;;;;;;;;;;;;;;;8.73;61.60;100231.47;5027621;28;20015;-78
2021/03/03 07:44:57;;;;;;;;;;;;;;;8.78;60.13;100231.44;5036445;28;19921;-77
2021/03/03 07:47:30;;;;;;;;;;;;;;;8.68;61.40;100238.34;5038674;28;19921;-76
2021/03/03 07:50:02;;;;;;;;;;;;;;;8.80;60.80;100229.72;5039618;28;19920;-77
2021/03/03 07:52:27;;;;;;;;;;;;;;;8.72;60.51;100244.34;5055461;28;20035;-74
2021/03/03 07:54:53;;;;;;;;;;;;;;;8.96;61.02;100235.63;5035057;28;20003;-76
2021/03/03 07:57:18;;;;;;;;;;;;;;;8.94;60.94;100235.66;5052198;28;19966;-78
2021/03/03 07:59:44;;;;;;;;;;;;;;;8.73;62.42;100230.63;5050085;28;19932;-77
2021/03/03 08:02:10;;;;;;;;;;;;;;;9.04;60.85;100223.59;5044521;28;19995;-78
2021/03/03 08:04:36;;;;;;;;;;;;;;;9.02;60.13;100217.63;5036424;28;19921;-80
2021/03/03 08:07:21;;;;;;;;;;;;;;;9.28;60.28;100221.72;5018961;28;20416;-80
2021/03/03 08:10:05;;;;;;;;;;;;;;;9.30;59.48;100227.72;5038629;28;19912;-79
2021/03/03 08:12:31;;;;;;;;;;;;;;;9.33;59.95;100233.69;5054291;28;19920;-78
2021/03/03 08:14:56;;;;;;;;;;;;;;;9.18;59.47;100236.38;5034726;28;19917;-78
2021/03/03 08:17:25;;;;;;;;;;;;;;;9.16;62.01;100231.22;5034362;28;19969;-78
2021/03/03 08:19:52;;;;;;;;;;;;;;;9.52;58.79;100228.41;5036389;28;20031;-78
2021/03/03 08:22:18;;;;;;;;;;;;;;;9.62;58.25;100230.91;5037958;28;19924;-78
2021/03/03 08:24:44;;;;;;;;;;;;;;;9.88;58.77;100226.41;5034765;28;20381;-77
2021/03/03 08:27:28;;;;;;;;;;;;;;;9.94;58.41;100227.16;5019293;28;20031;-78
2021/03/03 08:30:20;;;;;;;;;;;;;;;10.16;60.02;100226.97;5051716;28;19948;-80
2021/03/03 08:32:45;;;;;;;;;;;;;;;10.28;59.90;100221.66;5031467;28;19916;-78
2021/03/03 08:35:11;;;;;;;;;;;;;;;10.15;59.60;100220.97;5037910;28;19924;-80
2021/03/03 08:37:37;;;;;;;;;;;;;;;10.07;61.96;100212.47;5020746;28;19942;-78
2021/03/03 08:40:03;;;;;;;;;;;;;;;10.17;62.47;100216.66;5029340;28;19925;-78
2021/03/03 08:42:30;;;;;;;;;;;;;;;10.12;60.77;100215.84;5052505;28;19924;-76
2021/03/03 08:45:07;;;;;;;;;;;;;;;10.11;61.58;100214.16;5054586;28;20022;-78
2021/03/03 08:47:52;;;;;;;;;;;;;;;10.09;61.82;100221.03;5056051;28;19924;-77
2021/03/03 08:50:28;;;;;;;;;;;;;;;10.26;61.15;100219.13;5054334;28;19979;-79
2021/03/03 08:53:12;;;;;;;;;;;;;;;10.25;61.09;100221.72;5039306;28;20042;-80
2021/03/03 08:55:37;;;;;;;;;;;;;;;10.35;60.36;100220.75;5055680;28;20251;-78
2021/03/03 08:58:07;;;;;;;;;;;;;;;10.50;60.25;100218.91;5023972;28;19920;-77
2021/03/03 09:00:48;;;;;;;;;;;;;;;10.63;59.60;100223.03;5052620;28;19913;-77
2021/03/03 09:03:22;;;;;;;;;;;;;;;10.10;63.13;100221.88;5041521;28;20413;-78
2021/03/03 09:05:47;;;;;;;;;;;;;;;10.16;61.75;100221.81;5037425;28;20591;-78
2021/03/03 09:08:22;;;;;;;;;;;;;;;10.07;64.05;100217.63;5055500;28;19916;-79
2021/03/03 09:10:48;;;;;;;;;;;;;;;10.11;65.12;100221.03;5054625;28;19916;-78
2021/03/03 09:13:23;;;;;;;;;;;;;;;10.27;63.40;100222.56;5038917;28;20242;-77
2021/03/03 09:16:04;;;;;;;;;;;;;;;10.92;60.15;100222.63;5035559;28;19916;-77
2021/03/03 09:18:29;;;;;;;;;;;;;;;11.16;60.06;100213.69;5055240;28;19921;-78
2021/03/03 09:21:08;;;;;;;;;;;;;;;11.35;58.17;100203.09;5038974;28;20390;-77
2021/03/03 09:23:35;;;;;;;;;;;;;;;11.70;57.95;100210.28;5055246;28;20263;-78
2021/03/03 09:26:01;;;;;;;;;;;;;;;12.04;55.62;100207.09;5056677;28;20421;-79
2021/03/03 09:28:42;;;;;;;;;;;;;;;12.07;56.81;100205.31;5054598;28;19928;-79
2021/03/03 09:31:07;;;;;;;;;;;;;;;12.23;54.86;100210.19;5055359;28;20358;-79
2021/03/03 09:33:33;;;;;;;;;;;;;;;12.73;53.34;100209.16;5020404;28;19923;-79
2021/03/03 09:35:59;;;;;;;;;;;;;;;12.83;54.59;100206.38;5052729;28;19921;-78
2021/03/03 09:38:24;;;;;;;;;;;;;;;12.37;54.38;100213.34;5037937;28;19927;-78
2021/03/03 09:40:50;;;;;;;;;;;;;;;12.09;54.60;100208.72;5034617;28;20403;-78
2021/03/03 09:43:16;;;;;;;;;;;;;;;11.92;57.32;100205.59;5035750;28;19924;-78
2021/03/03 09:45:41;;;;;;;;;;;;;;;11.87;55.15;100207.38;5037830;28;20285;-78
2021/03/03 09:48:07;;;;;;;;;;;;;;;12.47;55.89;100209.69;5020262;28;19948;-79
2021/03/03 09:50:35;;;;;;;;;;;;;;;12.45;54.99;100211.47;5056445;28;19916;-78
2021/03/03 09:53:01;;;;;;;;;;;;;;;12.20;53.81;100215.41;5040008;28;19917;-79
2021/03/03 09:55:27;;;;;;;;;;;;;;;12.24;53.53;100211.88;5038994;28;20255;-77
2021/03/03 09:57:54;;;;;;;;;;;;;;;12.82;53.10;100205.53;5054649;28;20398;-78
2021/03/03 10:00:20;;;;;;;;;;;;;;;13.15;55.83;100200.47;5054274;28;19920;-79
2021/03/03 10:02:50;;;;;;;;;;;;;;;13.16;55.08;100205.63;5053593;28;19916;-78
2021/03/03 10:05:16;;;;;;;;;;;;;;;13.07;55.40;100205.84;5027839;28;20042;-79
2021/03/03 10:07:42;;;;;;;;;;;;;;;13.38;57.97;100199.94;5052017;28;19924;-78
2021/03/03 10:10:07;;;;;;;;;;;;;;;13.13;54.63;100199.66;5047300;28;19920;-79
2021/03/03 10:12:36;;;;;;;;;;;;;;;13.38;57.64;100198.22;5041208;28;20908;-79
2021/03/03 10:15:02;;;;;;;;;;;;;;;13.51;54.75;100205.69;5036467;28;19924;-77
2021/03/03 10:17:28;;;;;;;;;;;;;;;13.63;56.99;100202.78;5053643;28;19948;-79
2021/03/03 10:19:54;;;;;;;;;;;;;;;13.59;56.21;100204.63;5036975;28;19916;-78
2021/03/03 10:22:20;;;;;;;;;;;;;;;13.59;57.48;100198.56;5035999;28;20006;-78
2021/03/03 10:24:45;;;;;;;;;;;;;;;13.59;54.54;100204.63;5051428;28;19932;-79
2021/03/03 10:27:20;;;;;;;;;;;;;;;13.68;57.65;100195.75;5018128;28;19916;-79
2021/03/03 10:29:45;;;;;;;;;;;;;;;14.13;54.01;100195.41;5053794;28;20393;-79
2021/03/03 10:32:12;;;;;;;;;;;;;;;14.08;54.87;100197.28;5052093;28;19946;-79
2021/03/03 10:34:37;;;;;;;;;;;;;;;14.23;55.84;100196.00;5051989;28;20012;-78
2021/03/03 10:37:03;;;;;;;;;;;;;;;14.10;54.58;100195.50;5051652;28;20022;-79
2021/03/03 10:39:29;;;;;;;;;;;;;;;14.11;55.77;100194.59;5037803;28;20546;-77
2021/03/03 10:42:01;;;;;;;;;;;;;;;14.03;53.11;100191.41;5048422;28;19927;-79
2021/03/03 10:44:42;;;;;;;;;;;;;;;14.11;56.19;100189.44;5034194;28;19965;-76
2021/03/03 10:47:08;;;;;;;;;;;;;;;14.12;53.61;100188.56;5052158;28;19916;-76
2021/03/03 10:49:38;;;;;;;;;;;;;;;14.36;50.20;100193.94;5019520;28;19998;-78
2021/03/03 10:52:15;;;;;;;;;;;;;;;14.20;50.62;100190.91;5035634;28;19958;-79
2021/03/03 10:54:40;;;;;;;;;;;;;;;14.23;54.17;100186.53;5028022;28;19920;-80
2021/03/03 10:57:08;;;;;;;;;;;;;;;14.46;53.92;100184.16;5052816;28;19942;-78
2021/03/03 10:59:34;;;;;;;;;;;;;;;14.66;49.66;100183.59;5053475;28;19937;-78
2021/03/03 11:02:01;;;;;;;;;;;;;;;14.80;49.83;100173.66;5050276;28;20028;-80
2021/03/03 11:04:39;;;;;;;;;;;;;;;14.17;51.75;100176.31;5017300;28;19927;-79
2021/03/03 11:07:04;;;;;;;;;;;;;;;14.91;53.14;100168.97;5052809;28;19979;-80
2021/03/03 11:09:30;;;;;;;;;;;;;;;15.13;51.99;100163.13;5050169;28;20023;-78
2021/03/03 11:11:57;;;;;;;;;;;;;;;15.31;50.98;100159.94;5052572;28;19960;-79
2021/03/03 11:14:23;;;;;;;;;;;;;;;15.90;57.10;100156.25;5034809;28;20374;-79
2021/03/03 11:16:48;;;;;;;;;;;;;;;15.76;54.02;100155.84;5010690;28;19964;-80
2021/03/03 11:19:14;;;;;;;;;;;;;;;14.91;50.37;100162.94;5040362;28;20026;-77
2021/03/03 11:21:39;;;;;;;;;;;;;;;16.04;51.46;100158.34;5029915;28;19925;-79
2021/03/03 11:24:05;;;;;;;;;;;;;;;16.40;47.98;100160.47;5016239;28;20015;-79
2021/03/03 11:26:31;;;;;;;;;;;;;;;15.74;50.38;100150.72;5035842;28;19925;-80
2021/03/03 11:28:56;;;;;;;;;;;;;;;14.80;49.43;100155.50;5013555;28;19967;-79
2021/03/03 11:31:22;;;;;;;;;;;;;;;14.59;50.54;100157.00;5016515;28;19935;-79
2021/03/03 11:33:48;;;;;;;;;;;;;;;15.67;48.24;100149.22;5018871;28;19965;-80
2021/03/03 11:36:14;;;;;;;;;;;;;;;15.13;50.10;100150.16;5015601;28;19921;-78
2021/03/03 11:38:39;;;;;;;;;;;;;;;15.06;51.30;100137.38;5004291;28;19924;-78
2021/03/03 11:41:05;;;;;;;;;;;;;;;15.18;50.37;100146.50;5032956;28;19925;-79
2021/03/03 11:43:31;;;;;;;;;;;;;;;15.03;48.58;100142.69;5016930;28;19920;-79
2021/03/03 11:45:57;;;;;;;;;;;;;;;15.53;47.44;100133.25;5017407;28;19956;-80
2021/03/03 11:48:23;;;;;;;;;;;;;;;14.63;52.15;100149.09;5020811;28;19954;-79
2021/03/03 11:50:48;;;;;;;;;;;;;;;15.32;56.00;100138.25;5036930;28;19928;-80
2021/03/03 11:53:14;;;;;;;;;;;;;;;15.33;54.70;100134.78;5018454;28;19921;-78
2021/03/03 11:55:40;;;;;;;;;;;;;;;14.95;49.59;100130.84;5021305;28;19939;-79
2021/03/03 11:58:06;;;;;;;;;;;;;;;15.04;52.21;100133.97;5020684;28;19964;-78
2021/03/03 12:00:32;;;;;;;;;;;;;;;14.43;53.91;100130.66;4997874;28;19955;-78
2021/03/03 12:02:57;;;;;;;;;;;;;;;14.93;53.62;100125.69;5018041;28;19979;-79
2021/03/03 12:05:23;;;;;;;;;;;;;;;14.88;57.33;100122.41;5019162;28;19929;-79
2021/03/03 12:07:49;;;;;;;;;;;;;;;15.87;53.46;100115.63;5015740;28;19974;-79
2021/03/03 12:10:15;;;;;;;;;;;;;;;15.99;50.52;100113.50;5018998;28;19920;-76
2021/03/03 12:12:40;;;;;;;;;;;;;;;15.02;54.36;100116.78;5020629;28;19917;-77
2021/03/03 12:15:07;;;;;;;;;;;;;;;14.57;57.00;100118.19;4992259;28;19917;-80
2021/03/03 12:17:32;;;;;;;;;;;;;;;14.58;59.29;100106.91;5004419;28;19924;-76
2021/03/03 12:19:58;;;;;;;;;;;;;;;15.20;61.01;100108.38;5002017;28;19917;-77
2021/03/03 12:22:23;;;;;;;;;;;;;;;15.17;59.25;100100.72;5017182;28;19924;-77
2021/03/03 12:24:48;;;;;;;;;;;;;;;15.03;58.92;100106.34;5027850;28;19920;-77
2021/03/03 12:27:14;;;;;;;;;;;;;;;14.87;59.98;100099.97;5024632;28;19916;-78
2021/03/03 12:29:40;;;;;;;;;;;;;;;14.51;59.43;100094.16;5040927;28;19912;-77
2021/03/03 12:32:05;;;;;;;;;;;;;;;14.73;58.83;100091.75;5059178;28;19916;-78
2021/03/03 12:34:31;;;;;;;;;;;;;;;14.58;58.11;100090.50;5043677;28;19916;-78
2021/03/03 12:36:56;;;;;;;;;;;;;;;14.69;60.40;100087.56;5030567;28;19919;-77
2021/03/03 12:39:22;;;;;;;;;;;;;;;14.80;57.19;100082.88;5030331;28;19913;-79
2021/03/03 12:41:47;;;;;;;;;;;;;;;14.89;57.87;100082.59;5062394;28;19974;-76